Time;durP1;ratioP1;P1;durP2;ratioP2;P2;SDS_P1;SDS_P2;PMS_P1;PMS_P2;Temp;Humidity;BMP_temperature;BMP_pressure;BME280_temperature;BME280_humidity;BME280_pressure;Samples;Min_cycle;Max_cycle;Signal;HPM_P1;HPM_P2
2023/04/18 01:03:29;;;;;;;0.75;0.75;;;;;;;10.25;100.00;99739.22;6161057;23;20083;-90
2023/04/18 01:06:00;;;;;;;0.90;0.90;;;;;;;10.23;100.00;99743.66;6102889;23;20043;-88
2023/04/18 01:08:26;;;;;;;1.38;1.27;;;;;;;10.27;100.00;99747.84;6129235;23;20021;-88
2023/04/18 01:10:55;;;;;;;1.75;1.63;;;;;;;10.19;100.00;99731.91;6105138;23;20017;-88
2023/04/18 01:13:20;;;;;;;0.75;0.75;;;;;;;10.19;100.00;99735.44;6102836;23;20112;-89
2023/04/18 01:15:48;;;;;;;0.82;0.82;;;;;;;10.25;100.00;99743.97;6152492;23;20009;-89
2023/04/18 01:18:17;;;;;;;0.43;0.43;;;;;;;10.22;100.00;99734.56;6127697;23;20027;-89
2023/04/18 01:20:48;;;;;;;1.10;1.10;;;;;;;10.24;100.00;99745.97;6108171;23;20001;-94
2023/04/18 01:23:14;;;;;;;0.73;0.73;;;;;;;9.92;100.00;99687.94;6108277;23;20017;-93
2023/04/18 01:25:40;;;;;;;3.63;2.78;;;;;;;10.25;100.00;99743.97;6131665;23;20080;-95
2023/04/18 01:28:06;;;;;;;1.02;1.02;;;;;;;10.22;100.00;99745.66;6133588;23;20017;-96
2023/04/18 01:30:33;;;;;;;1.08;1.02;;;;;;;10.20;100.00;99731.44;6135061;23;20017;-92
2023/04/18 01:33:02;;;;;;;0.45;0.35;;;;;;;10.16;100.00;99719.69;6109594;23;20012;-94
2023/04/18 01:35:28;;;;;;;1.42;1.25;;;;;;;10.15;100.00;99729.22;6110199;23;20013;-93
2023/04/18 01:37:56;;;;;;;2.55;1.33;;;;;;;10.13;100.00;99734.41;6108973;23;20076;-93
2023/04/18 01:40:21;;;;;;;3.22;1.23;;;;;;;9.99;100.00;99717.44;6134498;23;20072;-93
2023/04/18 01:42:47;;;;;;;1.25;0.65;;;;;;;10.06;100.00;99731.84;6133967;23;20021;-95
2023/04/18 01:45:12;;;;;;;0.63;0.63;;;;;;;9.90;100.00;99717.28;6133649;23;20016;-93
2023/04/18 01:47:39;;;;;;;1.15;1.15;;;;;;;9.82;100.00;99706.44;6133889;23;20017;-92
2023/04/18 01:50:05;;;;;;;1.15;1.10;;;;;;;10.01;100.00;99734.38;6109253;23;20061;-94
2023/04/18 01:52:31;;;;;;;1.00;0.95;;;;;;;9.96;100.00;99727.38;6134474;23;20067;-95
2023/04/18 01:54:56;;;;;;;0.73;0.73;;;;;;;9.76;100.00;99701.84;6134705;23;20470;-94
2023/04/18 01:57:22;;;;;;;0.52;0.45;;;;;;;9.87;100.00;99718.19;6134450;23;20427;-93
2023/04/18 01:59:48;;;;;;;1.38;1.27;;;;;;;10.01;100.00;99740.72;6110482;23;20015;-94
2023/04/18 02:02:14;;;;;;;0.75;0.68;;;;;;;10.02;100.00;99736.72;6129757;23;20014;-94
2023/04/18 02:04:39;;;;;;;0.55;0.50;;;;;;;9.82;100.00;99711.97;6104589;23;20071;-94
2023/04/18 02:07:08;;;;;;;3.05;1.58;;;;;;;9.61;100.00;99675.78;6105637;23;20769;-93
2023/04/18 02:09:34;;;;;;;2.20;2.00;;;;;;;9.77;100.00;99704.19;6105443;23;20005;-96
2023/04/18 02:12:01;;;;;;;0.85;0.85;;;;;;;9.74;100.00;99712.59;6105019;23;20017;-93
2023/04/18 02:14:31;;;;;;;1.25;1.20;;;;;;;9.98;100.00;99752.69;6104735;23;20017;-93
2023/04/18 02:16:59;;;;;;;0.57;0.57;;;;;;;9.66;100.00;99698.19;6103850;23;20025;-95
2023/04/18 02:19:25;;;;;;;1.48;1.38;;;;;;;9.93;100.00;99733.81;6153235;23;20354;-94
2023/04/18 02:21:50;;;;;;;0.95;0.85;;;;;;;9.90;100.00;99723.63;6154029;23;20017;-93
2023/04/18 02:24:16;;;;;;;1.27;0.98;;;;;;;9.65;100.00;99690.31;6153838;23;20084;-94
2023/04/18 02:26:45;;;;;;;1.45;1.33;;;;;;;9.59;100.00;99686.50;6153051;23;20379;-94
2023/04/18 02:29:10;;;;;;;2.45;1.75;;;;;;;9.61;100.00;99686.88;6130058;23;20023;-94
2023/04/18 02:31:39;;;;;;;0.55;0.55;;;;;;;9.82;100.00;99722.28;6155031;23;20096;-93
2023/04/18 02:34:05;;;;;;;1.63;1.52;;;;;;;9.62;100.00;99686.44;6127776;23;20022;-94
2023/04/18 02:36:31;;;;;;;1.15;1.15;;;;;;;9.70;100.00;99709.16;6128201;23;20116;-93
2023/04/18 02:38:56;;;;;;;0.60;0.60;;;;;;;9.98;100.00;99744.38;6126284;23;20605;-94
2023/04/18 02:41:22;;;;;;;0.60;0.60;;;;;;;9.83;100.00;99721.81;6103234;23;20068;-94
2023/04/18 02:43:47;;;;;;;1.30;0.80;;;;;;;9.68;100.00;99700.50;6102428;23;20065;-94
2023/04/18 02:46:15;;;;;;;3.55;2.15;;;;;;;9.72;100.00;99707.50;6103627;23;20009;-94
2023/04/18 02:48:41;;;;;;;0.85;0.85;;;;;;;9.78;100.00;99704.97;6101971;23;20347;-95
2023/04/18 02:51:11;;;;;;;1.05;1.02;;;;;;;9.73;100.00;99702.75;6106777;23;20030;-94
2023/04/18 02:53:37;;;;;;;0.70;0.70;;;;;;;9.74;100.00;99716.16;6105266;23;20025;-95
2023/04/18 02:56:03;;;;;;;0.75;0.65;;;;;;;9.90;100.00;99740.25;6154362;23;20033;-94
2023/04/18 02:58:49;;;;;;;2.83;1.95;;;;;;;9.75;100.00;99714.91;6112568;23;20020;-93
2023/04/18 03:01:40;;;;;;;1.05;1.00;;;;;;;10.02;100.00;99756.13;6123807;23;20013;-93
2023/04/18 03:04:12;;;;;;;2.65;2.45;;;;;;;9.95;100.00;99742.44;6152536;23;20128;-95
2023/04/18 03:06:42;;;;;;;1.02;1.02;;;;;;;9.69;100.00;99702.06;6108224;23;20024;-94
2023/04/18 03:09:07;;;;;;;1.85;1.75;;;;;;;9.76;100.00;99718.47;6079174;23;20017;-95
2023/04/18 03:11:36;;;;;;;1.50;1.40;;;;;;;9.70;100.00;99704.41;6105987;23;20461;-94
2023/04/18 03:14:02;;;;;;;2.58;2.20;;;;;;;10.03;100.00;99759.66;6104089;23;20017;-89
2023/04/18 03:16:36;;;;;;;;;;;;;;;10.04;100.00;99748.13;6126186;23;20102;-89
2023/04/18 03:19:03;;;;;;;1.55;1.45;;;;;;;10.03;100.00;99752.09;6149248;23;20007;-89
2023/04/18 03:21:29;;;;;;;0.40;0.32;;;;;;;9.89;100.00;99719.28;6125011;23;20017;-88
2023/04/18 03:23:55;;;;;;;0.77;0.77;;;;;;;9.97;100.00;99745.56;6100661;23;20041;-89
2023/04/18 03:26:21;;;;;;;0.80;0.73;;;;;;;9.83;100.00;99721.81;6101048;23;20021;-88
2023/04/18 03:28:47;;;;;;;0.55;0.55;;;;;;;9.83;100.00;99721.03;6150292;23;20008;-89
2023/04/18 03:31:12;;;;;;;1.50;1.40;;;;;;;9.90;100.00;99734.69;6101624;23;20089;-89
2023/04/18 03:33:44;;;;;;;1.13;1.08;;;;;;;9.89;100.00;99730.38;6100298;23;20024;-89
2023/04/18 03:36:11;;;;;;;3.10;1.67;;;;;;;9.86;100.00;99722.94;6125806;23;20021;-89
2023/04/18 03:38:39;;;;;;;0.50;0.50;;;;;;;9.99;100.00;99754.22;6124514;23;20022;-88
2023/04/18 03:41:05;;;;;;;5.93;1.42;;;;;;;9.92;100.00;99739.78;6100918;23;20013;-88
2023/04/18 03:43:33;;;;;;;1.02;1.02;;;;;;;9.97;100.00;99755.88;6129066;23;20028;-94
2023/04/18 03:45:59;;;;;;;0.65;0.65;;;;;;;9.94;100.00;99746.47;6103717;23;20336;-93
2023/04/18 03:48:25;;;;;;;0.60;0.47;;;;;;;9.92;100.00;99735.03;6078444;23;20021;-93
2023/04/18 03:50:52;;;;;;;3.55;2.38;;;;;;;9.92;100.00;99751.66;6103667;23;20057;-94
2023/04/18 03:53:18;;;;;;;0.75;0.45;;;;;;;10.01;100.00;99762.88;6104824;23;20018;-93
2023/04/18 03:55:44;;;;;;;1.85;1.73;;;;;;;9.88;100.00;99734.34;6153955;23;20021;-92
2023/04/18 03:58:12;;;;;;;1.63;1.52;;;;;;;9.86;100.00;99750.66;6130166;23;20041;-94
2023/04/18 04:00:39;;;;;;;1.17;0.73;;;;;;;9.79;100.00;99739.75;6104198;23;20013;-93
2023/04/18 04:03:07;;;;;;;1.02;1.02;;;;;;;9.94;100.00;99763.09;6100266;23;20112;-94
2023/04/18 04:05:33;;;;;;;1.27;1.25;;;;;;;9.90;100.00;99762.41;6075503;23;20060;-95
2023/04/18 04:07:59;;;;;;;1.15;1.13;;;;;;;9.72;100.00;99746.28;6102761;23;20017;-95
2023/04/18 04:10:25;;;;;;;2.17;0.73;;;;;;;9.91;100.00;99769.47;6102964;23;20014;-95
2023/04/18 04:12:52;;;;;;;3.05;2.42;;;;;;;9.86;100.00;99767.28;6077433;23;20065;-93
2023/04/18 04:15:17;;;;;;;0.30;0.30;;;;;;;9.81;100.00;99776.09;6076683;23;20009;-96
2023/04/18 04:17:50;;;;;;;1.23;0.85;;;;;;;9.60;100.00;99740.69;6077893;23;20010;-95
2023/04/18 04:20:22;;;;;;;1.10;0.85;;;;;;;9.72;100.00;99756.56;6074788;23;20344;-95
2023/04/18 04:22:52;;;;;;;1.45;1.35;;;;;;;9.85;100.00;99782.31;6098583;23;20074;-93
2023/04/18 04:25:23;;;;;;;0.90;0.90;;;;;;;9.62;100.00;99746.56;6077225;23;20017;-96
2023/04/18 04:27:52;;;;;;;1.17;1.05;;;;;;;9.58;100.00;99745.91;6072182;23;20029;-89
2023/04/18 04:30:20;;;;;;;0.75;0.75;;;;;;;9.88;100.00;99786.22;6119805;23;20437;-89
2023/04/18 04:32:46;;;;;;;0.38;0.38;;;;;;;9.69;100.00;99768.53;6069106;23;20021;-89
2023/04/18 04:35:12;;;;;;;0.45;0.43;;;;;;;9.93;100.00;99789.22;6069129;23;20018;-89
2023/04/18 04:37:40;;;;;;;1.48;1.38;;;;;;;9.71;100.00;99757.78;6117990;23;20041;-89
2023/04/18 04:40:17;;;;;;;1.10;1.02;;;;;;;9.97;100.00;99803.75;6119270;23;20033;-89
2023/04/18 04:42:57;;;;;;;2.55;1.15;;;;;;;9.79;100.00;99776.53;6120684;23;20018;-90
2023/04/18 04:45:32;;;;;;;1.30;0.88;;;;;;;9.67;100.00;99762.63;6072233;23;20053;-89
2023/04/18 04:47:58;;;;;;;0.95;0.95;;;;;;;10.01;100.00;99823.84;6119145;23;20017;-88
2023/04/18 04:50:23;;;;;;;1.27;1.27;;;;;;;9.93;100.00;99813.38;6069960;23;20014;-88
2023/04/18 04:52:49;;;;;;;2.33;1.02;;;;;;;10.01;100.00;99823.06;6071470;23;20029;-89
2023/04/18 04:55:16;;;;;;;1.75;1.33;;;;;;;9.82;100.00;99791.53;6047426;23;20018;-89
2023/04/18 04:57:43;;;;;;;1.17;1.15;;;;;;;9.82;100.00;99786.75;6070406;23;20073;-88
2023/04/18 05:00:28;;;;;;;1.27;1.17;;;;;;;9.96;100.00;99802.19;6077799;23;20399;-87
2023/04/18 05:02:56;;;;;;;1.80;1.55;;;;;;;10.02;100.00;99819.06;6076888;23;20021;-89
2023/04/18 05:05:23;;;;;;;0.52;0.52;;;;;;;9.88;100.00;99798.06;6100019;23;20013;-90
2023/04/18 05:07:49;;;;;;;1.00;0.93;;;;;;;9.95;100.00;99808.19;6075116;23;20100;-88
2023/04/18 05:10:14;;;;;;;0.95;0.88;;;;;;;9.99;100.00;99806.84;6076863;23;20014;-88
2023/04/18 05:12:40;;;;;;;2.58;1.50;;;;;;;9.86;100.00;99785.88;6124848;23;20025;-88
2023/04/18 05:15:06;;;;;;;0.88;0.88;;;;;;;10.02;100.00;99814.31;6126347;23;20061;-88
2023/04/18 05:17:31;;;;;;;0.38;0.38;;;;;;;9.80;100.00;99786.41;6126215;23;20020;-96
2023/04/18 05:19:57;;;;;;;0.90;0.90;;;;;;;9.91;100.00;99805.50;6078402;23;20012;-94
2023/04/18 05:22:23;;;;;;;1.15;0.70;;;;;;;10.03;100.00;99818.63;6127794;23;20399;-94
2023/04/18 05:24:48;;;;;;;2.25;2.05;;;;;;;9.83;100.00;99790.28;6104882;23;20017;-94
2023/04/18 05:27:14;;;;;;;0.77;0.77;;;;;;;9.99;100.00;99831.78;6104537;23;20009;-95
2023/04/18 05:29:40;;;;;;;0.35;0.35;;;;;;;10.04;100.00;99834.03;6104918;23;20097;-96
2023/04/18 05:32:05;;;;;;;2.17;2.03;;;;;;;9.70;100.00;99781.94;6081021;23;20022;-94
2023/04/18 05:34:34;;;;;;;0.30;0.30;;;;;;;9.95;100.00;99808.94;6104210;23;20093;-94
2023/04/18 05:37:00;;;;;;;3.28;0.45;;;;;;;9.84;100.00;99811.25;6129136;23;20020;-96
2023/04/18 05:39:25;;;;;;;0.75;0.75;;;;;;;9.96;100.00;99816.06;6104218;23;20408;-94
2023/04/18 05:41:51;;;;;;;1.00;1.00;;;;;;;10.06;100.00;99837.16;6079636;23;20108;-93
2023/04/18 05:44:17;;;;;;;1.20;0.90;;;;;;;9.83;100.00;99798.59;6078838;23;20021;-94
2023/04/18 05:46:42;;;;;;;1.08;1.08;;;;;;;9.99;100.00;99825.50;6104349;23;20105;-95
2023/04/18 05:49:08;;;;;;;1.00;1.00;;;;;;;9.88;100.00;99814.69;6104774;23;20024;-94
2023/04/18 05:51:34;;;;;;;5.95;2.05;;;;;;;9.94;100.00;99807.41;6106458;23;20014;-94
2023/04/18 05:53:59;;;;;;;0.32;0.32;;;;;;;10.07;100.00;99838.69;6101527;23;20005;-90
2023/04/18 05:56:25;;;;;;;1.02;0.80;;;;;;;10.15;100.00;99847.66;6150604;23;20465;-88
2023/04/18 05:58:51;;;;;;;1.40;1.17;;;;;;;9.96;100.00;99829.91;6148804;23;20835;-88
2023/04/18 06:01:20;;;;;;;0.52;0.52;;;;;;;9.92;100.00;99807.06;6124857;23;20014;-88
2023/04/18 06:03:46;;;;;;;0.98;0.90;;;;;;;9.90;100.00;99823.34;6106199;23;20475;-87
2023/04/18 06:06:12;;;;;;;1.75;1.08;;;;;;;9.92;100.00;99820.13;6122349;23;20009;-90
2023/04/18 06:08:38;;;;;;;2.83;0.98;;;;;;;10.03;100.00;99853.88;6120576;23;20377;-87
2023/04/18 06:11:04;;;;;;;1.13;1.02;;;;;;;10.02;100.00;99852.31;6119609;23;20364;-88
2023/04/18 06:13:30;;;;;;;0.98;0.52;;;;;;;9.89;100.00;99829.31;6096081;23;20010;-88
2023/04/18 06:16:03;;;;;;;1.40;1.30;;;;;;;10.18;100.00;99866.16;6121383;23;20018;-88
2023/04/18 06:18:28;;;;;;;0.68;0.43;;;;;;;9.88;100.00;99827.75;6097235;23;20010;-89
2023/04/18 06:20:54;;;;;;;1.55;0.63;;;;;;;10.09;100.00;99868.75;6096060;23;20017;-88
2023/04/18 06:23:19;;;;;;;0.77;0.77;;;;;;;9.84;100.00;99830.63;6122826;23;20025;-88
2023/04/18 06:25:45;;;;;;;1.00;1.00;;;;;;;10.02;100.00;99852.31;6095655;23;20094;-88
2023/04/18 06:28:11;;;;;;;0.65;0.65;;;;;;;10.05;100.00;99855.00;6096512;23;20021;-88
2023/04/18 06:30:36;;;;;;;1.10;0.85;;;;;;;10.23;100.00;99879.50;6072055;23;20336;-87
2023/04/18 06:33:02;;;;;;;2.35;1.15;;;;;;;10.21;100.00;99877.16;6122298;23;20707;-88
2023/04/18 06:35:29;;;;;;;1.10;0.55;;;;;;;10.00;100.00;99844.44;6096221;23;19998;-89
2023/04/18 06:37:55;;;;;;;0.30;0.30;;;;;;;10.08;100.00;99862.44;6096941;23;20502;-88
2023/04/18 06:40:21;;;;;;;0.73;0.73;;;;;;;10.21;100.00;99893.78;6097332;23;20018;-90
2023/04/18 06:42:46;;;;;;;0.57;0.55;;;;;;;9.94;100.00;99840.66;6122053;23;20028;-89
2023/04/18 06:45:12;;;;;;;1.27;1.17;;;;;;;10.02;100.00;99839.25;6096861;23;20009;-89
2023/04/18 06:47:38;;;;;;;1.45;1.23;;;;;;;9.95;100.00;99847.72;6095393;23;20017;-88
2023/04/18 06:50:05;;;;;;;2.50;0.50;;;;;;;10.23;100.00;99896.88;6122824;23;20024;-89
2023/04/18 06:52:31;;;;;;;4.25;1.73;;;;;;;10.08;100.00;99867.97;6122337;23;20062;-88
2023/04/18 06:54:56;;;;;;;1.55;1.45;;;;;;;9.85;100.00;99843.28;6095551;23;20018;-88
2023/04/18 06:57:22;;;;;;;1.05;1.05;;;;;;;10.08;100.00;99876.28;6096707;23;20037;-89
2023/04/18 06:59:47;;;;;;;1.00;0.95;;;;;;;9.96;100.00;99860.38;6120094;23;20076;-89
2023/04/18 07:02:13;;;;;;;0.75;0.75;;;;;;;10.16;100.00;99891.53;6071789;23;20021;-89
2023/04/18 07:04:39;;;;;;;1.92;1.25;;;;;;;10.18;100.00;99889.13;6117526;23;20028;-87
2023/04/18 07:07:04;;;;;;;4.90;1.38;;;;;;;10.24;100.00;99892.13;6122112;23;20018;-89
2023/04/18 07:09:30;;;;;;;1.42;0.95;;;;;;;10.19;100.00;99879.56;6096737;23;20018;-89
2023/04/18 07:11:56;;;;;;;1.10;0.93;;;;;;;10.20;100.00;99872.03;6072169;23;20470;-88
2023/04/18 07:14:22;;;;;;;2.10;0.93;;;;;;;10.25;100.00;99877.81;6072702;23;20037;-89
2023/04/18 07:16:48;;;;;;;0.63;0.63;;;;;;;10.29;100.00;99884.03;6094849;23;20086;-89
2023/04/18 07:19:13;;;;;;;1.23;0.85;;;;;;;10.25;100.00;99877.03;6096090;23;20333;-89
2023/04/18 07:21:41;;;;;;;1.08;0.90;;;;;;;10.18;100.00;99849.53;6072481;23;20014;-90
2023/04/18 07:24:07;;;;;;;0.98;0.90;;;;;;;10.38;100.00;99880.63;6072417;23;20468;-88
2023/04/18 07:26:32;;;;;;;0.60;0.57;;;;;;;10.25;100.00;99861.19;6047825;23;20018;-89
2023/04/18 07:28:58;;;;;;;1.35;1.13;;;;;;;10.28;100.00;99860.31;6095422;23;20112;-89
2023/04/18 07:31:27;;;;;;;0.30;0.30;;;;;;;10.48;100.00;99884.31;6096820;23;20460;-89
2023/04/18 07:33:54;;;;;;;0.32;0.32;;;;;;;10.61;100.00;99904.53;6048594;23;20014;-89
2023/04/18 07:36:20;;;;;;;0.80;0.80;;;;;;;10.66;100.00;99901.22;6095865;23;20021;-89
2023/04/18 07:38:46;;;;;;;1.13;0.98;;;;;;;10.59;100.00;99884.81;6095744;23;20013;-89
2023/04/18 07:41:11;;;;;;;1.13;1.10;;;;;;;10.52;100.00;99879.44;6048071;23;20020;-89
2023/04/18 07:43:37;;;;;;;1.45;1.35;;;;;;;10.70;100.00;99904.69;6071920;23;20060;-89
2023/04/18 07:46:04;;;;;;;0.47;0.47;;;;;;;10.58;100.00;99895.13;6048255;23;20029;-90
2023/04/18 07:48:30;;;;;;;1.13;0.88;;;;;;;10.61;100.00;99894.22;6070462;23;20018;-89
2023/04/18 07:50:55;;;;;;;1.98;1.33;;;;;;;10.51;100.00;99889.00;6071748;23;20028;-89
2023/04/18 07:53:21;;;;;;;2.08;1.67;;;;;;;10.63;100.00;99905.66;6095896;23;20181;-89
2023/04/18 07:55:46;;;;;;;0.35;0.35;;;;;;;10.60;100.00;99894.66;6071582;23;20018;-90
2023/04/18 07:58:12;;;;;;;1.10;1.00;;;;;;;10.58;100.00;99910.97;6047897;23;20017;-90
2023/04/18 08:00:38;;;;;;;0.75;0.75;;;;;;;10.56;100.00;99907.84;6071303;23;20025;-89
2023/04/18 08:03:04;;;;;;;1.95;1.27;;;;;;;10.33;100.00;99895.03;6076706;23;20029;-90
2023/04/18 08:05:30;;;;;;;1.35;1.08;;;;;;;10.44;100.00;99911.38;6125301;23;20079;-89
2023/04/18 08:07:56;;;;;;;1.02;0.90;;;;;;;10.27;100.00;99892.00;6125013;23;20496;-90
2023/04/18 08:10:21;;;;;;;0.63;0.63;;;;;;;10.13;100.00;99874.97;6100845;23;20080;-90
2023/04/18 08:12:47;;;;;;;1.42;0.77;;;;;;;10.26;100.00;99898.78;6076416;23;20713;-90
2023/04/18 08:15:12;;;;;;;1.92;1.80;;;;;;;10.29;100.00;99902.66;6115058;23;20085;-89
2023/04/18 08:17:38;;;;;;;0.40;0.40;;;;;;;10.31;100.00;99903.03;6123700;23;20384;-89
2023/04/18 08:20:06;;;;;;;0.57;0.57;;;;;;;10.41;100.00;99923.34;6124684;23;20024;-90
2023/04/18 08:22:31;;;;;;;0.63;0.63;;;;;;;10.13;100.00;99892.38;6149772;23;20052;-90
2023/04/18 08:24:57;;;;;;;0.40;0.40;;;;;;;10.31;100.00;99914.13;6099714;23;20128;-90
2023/04/18 08:27:23;;;;;;;1.17;1.08;;;;;;;10.32;100.00;99909.31;6124887;23;20016;-89
2023/04/18 08:29:48;;;;;;;1.58;0.93;;;;;;;10.31;100.00;99907.78;6100392;23;20093;-88
2023/04/18 08:32:13;;;;;;;0.70;0.70;;;;;;;10.54;100.00;99949.13;6100646;23;20104;-88
2023/04/18 08:34:39;;;;;;;0.52;0.52;;;;;;;10.31;100.00;99905.03;6099797;23;20084;-88
2023/04/18 08:37:06;;;;;;;1.65;1.55;;;;;;;10.56;100.00;99941.13;6124522;23;20017;-88
2023/04/18 08:39:31;;;;;;;0.85;0.82;;;;;;;10.44;100.00;99911.38;6100496;23;20462;-89
2023/04/18 08:41:58;;;;;;;0.85;0.85;;;;;;;10.74;100.00;99949.75;6100769;23;20769;-89
2023/04/18 08:44:27;;;;;;;0.52;0.52;;;;;;;10.59;100.00;99918.88;6125033;23;20045;-88
2023/04/18 08:46:53;;;;;;;0.43;0.43;;;;;;;10.88;100.00;99952.09;6075767;23;20046;-89
2023/04/18 08:49:23;;;;;;;1.05;1.02;;;;;;;10.83;100.00;99924.13;6099947;23;20080;-90
2023/04/18 08:51:51;;;;;;;0.68;0.68;;;;;;;10.79;100.00;99915.91;6101106;23;20037;-89
2023/04/18 08:54:19;;;;;;;0.93;0.82;;;;;;;11.07;100.00;99942.81;6100063;23;20088;-90
2023/04/18 08:56:45;;;;;;;0.95;0.90;;;;;;;10.97;100.00;99926.47;6100559;23;20013;-90
2023/04/18 08:59:11;;;;;;;0.55;0.55;;;;;;;11.02;100.00;99935.03;6125017;23;20032;-89
2023/04/18 09:01:55;;;;;;;2.15;1.10;;;;;;;11.08;100.00;99935.28;6124437;23;20495;-90
2023/04/18 09:04:37;;;;;;;1.42;1.33;;;;;;;11.28;100.00;99951.72;6116421;23;20058;-89
2023/04/18 09:07:07;;;;;;;2.63;1.65;;;;;;;11.21;100.00;99938.81;6077470;23;20022;-90
2023/04/18 09:09:41;;;;;;;1.00;0.88;;;;;;;11.31;100.00;99950.81;6124684;23;20050;-90
2023/04/18 09:12:08;;;;;;;1.25;1.15;;;;;;;11.27;100.00;99939.03;6124819;23;20092;-90
2023/04/18 09:14:41;;;;;;;0.80;0.80;;;;;;;11.30;100.00;99950.03;6124553;23;20085;-90
2023/04/18 09:17:09;;;;;;;0.00;0.00;;;;;;;11.22;100.00;99943.16;6126414;23;20101;-90
2023/04/18 09:19:35;;;;;;;0.95;0.82;;;;;;;11.03;100.00;99928.25;6100236;23;20068;-89
2023/04/18 09:22:03;;;;;;;0.73;0.50;;;;;;;11.17;100.00;99958.34;6124607;23;20085;-89
2023/04/18 09:24:29;;;;;;;3.70;0.80;;;;;;;11.19;100.00;99964.25;6100077;23;20022;-90
2023/04/18 09:26:56;;;;;;;1.10;1.02;;;;;;;11.12;100.00;99964.44;6100047;23;20065;-89
2023/04/18 09:29:22;;;;;;;0.57;0.57;;;;;;;10.99;100.00;99957.34;6099862;23;20048;-90
2023/04/18 09:32:06;;;;;;;2.20;1.20;;;;;;;11.02;100.00;99951.69;6075636;23;20073;-90
2023/04/18 09:34:32;;;;;;;;;;;;;;;11.14;100.00;99966.78;6124920;23;20428;-90
2023/04/18 09:37:12;;;;;;;0.75;0.75;;;;;;;11.06;100.00;99973.78;6100732;23;20711;-90
2023/04/18 09:39:39;;;;;;;0.75;0.75;;;;;;;10.92;100.00;99952.00;6119510;23;20021;-89
2023/04/18 09:42:05;;;;;;;0.90;0.88;;;;;;;10.95;100.00;99973.31;6095837;23;20013;-90
2023/04/18 09:44:31;;;;;;;0.75;0.63;;;;;;;10.63;100.00;99921.53;6100180;23;20535;-90
2023/04/18 09:46:57;;;;;;;0.50;0.50;;;;;;;10.82;100.00;99953.88;6099989;23;20044;-90
2023/04/18 09:49:23;;;;;;;0.38;0.38;;;;;;;10.99;100.00;99965.66;6101236;23;20440;-90
2023/04/18 09:51:54;;;;;;;1.20;1.10;;;;;;;10.94;100.00;99967.00;6101941;23;20011;-89
2023/04/18 09:54:22;;;;;;;0.77;0.75;;;;;;;10.95;100.00;99974.09;6102011;23;20347;-90
2023/04/18 09:56:50;;;;;;;1.23;1.13;;;;;;;10.85;100.00;99964.06;6102218;23;20017;-95
2023/04/18 09:59:40;;;;;;;0.50;0.50;;;;;;;10.70;100.00;99935.97;6107561;23;20033;-96
2023/04/18 10:02:13;;;;;;;0.65;0.52;;;;;;;10.82;100.00;99953.88;6096070;23;20084;-92
2023/04/18 10:04:39;;;;;;;1.80;1.70;;;;;;;10.85;100.00;99947.44;6076126;23;20026;-94
2023/04/18 10:07:05;;;;;;;2.38;1.77;;;;;;;10.87;100.00;99945.00;6101525;23;20077;-95
2023/04/18 10:09:32;;;;;;;1.23;1.13;;;;;;;10.91;100.00;99958.78;6078715;23;20352;-96
2023/04/18 10:11:58;;;;;;;2.83;1.33;;;;;;;10.73;100.00;99924.00;6100682;23;20017;-94
2023/04/18 10:14:24;;;;;;;0.30;0.30;;;;;;;10.72;100.00;99922.44;6101634;23;20467;-95
2023/04/18 10:16:50;;;;;;;1.02;1.02;;;;;;;10.91;100.00;99940.13;6101833;23;20032;-95
2023/04/18 10:19:24;;;;;;;0.95;0.68;;;;;;;10.80;100.00;99900.78;6102106;23;20030;-95
2023/04/18 10:21:54;;;;;;;1.17;0.77;;;;;;;11.24;100.00;99974.78;6103189;23;20452;-93
2023/04/18 10:24:49;;;;;;;1.15;1.05;;;;;;;11.28;100.00;99973.94;6082563;23;20064;-95
2023/04/18 10:27:15;;;;;;;0.60;0.60;;;;;;;10.81;100.00;99907.91;6082633;23;20053;-95
2023/04/18 10:29:49;;;;;;;0.68;0.50;;;;;;;10.82;100.00;99919.78;6078286;23;20017;-95
2023/04/18 10:32:17;;;;;;;1.05;1.05;;;;;;;10.80;100.00;99922.25;6076276;23;20103;-96
2023/04/18 10:34:43;;;;;;;0.65;0.55;;;;;;;11.18;100.00;99971.03;6076818;23;20440;-95
2023/04/18 10:37:11;;;;;;;0.43;0.43;;;;;;;10.74;100.00;99900.59;6080579;23;20043;-96
2023/04/18 10:39:59;;;;;;;0.43;0.43;;;;;;;10.79;100.00;99913.13;6077252;23;20017;-96
2023/04/18 10:42:46;;;;;;;2.90;2.08;;;;;;;11.22;100.00;99955.03;6077233;23;20033;-96
2023/04/18 10:45:27;;;;;;;1.20;0.55;;;;;;;10.92;100.00;99902.81;6125113;23;20458;-96
2023/04/18 10:48:31;;;;;;;0.55;0.55;;;;;;;11.33;100.00;99973.34;6075232;23;20022;-96
2023/04/18 10:51:17;;;;;;;0.50;0.50;;;;;;;11.20;100.00;99942.81;6076386;23;20026;-96
2023/04/18 10:53:52;;;;;;;1.05;1.05;;;;;;;11.33;100.00;99954.69;6099033;23;20116;-96
2023/04/18 10:56:17;;;;;;;1.45;1.35;;;;;;;11.40;100.00;99942.59;6076431;23;20010;-96
2023/04/18 10:58:49;;;;;;;1.88;1.55;;;;;;;11.20;100.00;99901.94;6076731;23;20458;-96
2023/04/18 11:01:24;;;;;;;3.22;1.45;;;;;;;11.34;100.00;99911.81;6100165;23;20025;-96
2023/04/18 11:03:50;;;;;;;1.15;1.05;;;;;;;11.43;100.00;99909.16;6081150;23;20048;-94
2023/04/18 11:06:16;;;;;;;0.13;0.13;;;;;;;11.48;100.00;99905.03;6105709;23;20440;-96
2023/04/18 11:08:41;;;;;;;1.83;1.73;;;;;;;11.64;100.00;99914.03;6156286;23;20013;-96
2023/04/18 11:11:10;;;;;;;0.95;0.75;;;;;;;11.90;100.00;99925.88;6155397;23;20056;-96
2023/04/18 11:13:36;;;;;;;1.85;0.88;;;;;;;11.84;100.00;99913.78;6129501;23;20180;-96
2023/04/18 11:16:02;;;;;;;0.50;0.50;;;;;;;12.11;100.00;99944.63;6105529;23;20024;-93
2023/04/18 11:18:40;;;;;;;0.35;0.35;;;;;;;12.31;100.00;99968.56;6154470;23;20339;-95
2023/04/18 11:21:06;;;;;;;0.57;0.57;;;;;;;11.96;100.00;99899.09;6082255;23;20101;-95
2023/04/18 11:23:32;;;;;;;0.57;0.57;;;;;;;12.19;100.00;99914.56;6105053;23;20064;-95
2023/04/18 11:25:58;;;;;;;2.08;1.50;;;;;;;12.45;100.00;99935.50;6128819;23;20480;-94
2023/04/18 11:28:24;;;;;;;2.00;1.50;;;;;;;12.57;100.00;99922.75;6128890;23;20094;-96
2023/04/18 11:30:49;;;;;;;1.20;1.10;;;;;;;12.60;100.00;99905.13;6127599;23;20048;-95
2023/04/18 11:33:15;;;;;;;1.60;1.45;;;;;;;12.66;100.00;99897.72;6104809;23;20025;-94
2023/04/18 11:35:43;;;;;;;0.80;0.80;;;;;;;12.95;100.00;99937.19;6152984;23;20010;-95
2023/04/18 11:38:11;;;;;;;0.68;0.68;;;;;;;12.85;100.00;99932.81;6103904;23;20006;-94
2023/04/18 11:40:36;;;;;;;0.70;0.70;;;;;;;12.74;100.00;99924.06;6127663;23;20018;-94
2023/04/18 11:43:06;;;;;;;1.25;1.15;;;;;;;12.83;100.00;99962.31;6152040;23;20060;-94
2023/04/18 11:45:32;;;;;;;1.50;1.33;;;;;;;12.63;100.00;99948.75;6152935;23;20037;-96
2023/04/18 11:47:59;;;;;;;0.70;0.68;;;;;;;12.47;100.00;99901.63;6103802;23;20014;-96
2023/04/18 11:50:35;;;;;;;3.20;1.00;;;;;;;12.69;100.00;99943.38;6103758;23;20013;-94
2023/04/18 11:53:01;;;;;;;0.98;0.95;;;;;;;12.58;100.00;99932.63;6127688;23;20355;-94
2023/04/18 11:55:27;;;;;;;1.77;1.52;;;;;;;12.42;100.00;99899.44;6152919;23;20104;-93
2023/04/18 11:57:57;;;;;;;0.70;0.70;;;;;;;12.60;100.00;99927.41;6102744;23;20032;-96
2023/04/18 12:00:43;;;;;;;0.70;0.70;;;;;;;12.74;100.00;99917.75;6102989;23;20065;-95
2023/04/18 12:03:15;;;;;;;2.30;0.98;;;;;;;13.07;100.00;99966.97;6103161;23;20022;-94
2023/04/18 12:05:41;;;;;;;0.60;0.53;;;;;;;12.83;100.00;99926.13;6102479;23;20026;-94
2023/04/18 12:08:19;;;;;;;0.85;0.85;;;;;;;12.78;100.00;99927.50;6103396;23;20097;-96
2023/04/18 12:10:46;;;;;;;0.20;0.20;;;;;;;12.85;100.00;99955.09;6124020;23;20041;-90
2023/04/18 12:13:12;;;;;;;0.85;0.80;;;;;;;12.71;100.00;99952.81;6150106;23;20463;-89
2023/04/18 12:15:40;;;;;;;0.52;0.50;;;;;;;12.75;100.00;99978.50;6149197;23;20016;-90
2023/04/18 12:18:08;;;;;;;0.45;0.38;;;;;;;12.54;100.00;99929.19;6123241;23;20475;-89
2023/04/18 12:20:45;;;;;;;0.80;0.80;;;;;;;12.70;100.00;99964.41;6124131;23;20017;-89
2023/04/18 12:23:29;;;;;;;0.80;0.70;;;;;;;12.77;100.00;99976.06;6100560;23;20018;-89
2023/04/18 12:26:02;;;;;;;0.20;0.20;;;;;;;12.76;100.00;99946.69;6149539;23;20017;-89
2023/04/18 12:28:28;;;;;;;0.75;0.60;;;;;;;12.92;100.00;99951.25;6150535;23;20411;-90
2023/04/18 12:30:54;;;;;;;0.32;0.32;;;;;;;13.08;100.00;99959.38;6123705;23;20084;-89
2023/04/18 12:33:20;;;;;;;0.45;0.45;;;;;;;13.34;100.00;99973.94;6147524;23;20017;-90
2023/04/18 12:35:45;;;;;;;1.00;0.98;;;;;;;13.15;100.00;99922.16;6149228;23;20013;-89